createdAt,value
2023-02-24T00:01:16.087Z,14.60
2023-02-24T00:06:19.863Z,18.90
2023-02-24T00:11:22.544Z,15.33
2023-02-24T00:16:24.940Z,13.87
2023-02-24T00:21:29.477Z,15.97
2023-02-24T00:26:32.017Z,12.70
2023-02-24T00:31:34.689Z,10.87
2023-02-24T00:36:38.593Z,14.70
2023-02-24T00:41:43.471Z,11.97
2023-02-24T00:46:48.272Z,9.73
2023-02-24T00:51:54.494Z,10.97
2023-02-24T00:56:57.648Z,12.40
2023-02-24T01:02:00.209Z,8.43
2023-02-24T01:07:04.324Z,19.90
2023-02-24T01:12:26.483Z,14.57
2023-02-24T01:17:28.891Z,15.27
2023-02-24T01:22:34.318Z,18.07
2023-02-24T01:27:37.720Z,12.70
2023-02-24T01:32:40.060Z,13.70
2023-02-24T01:37:43.708Z,10.80
2023-02-24T01:42:47.946Z,12.73
2023-02-24T01:47:51.308Z,14.00
2023-02-24T01:52:59.131Z,16.43
2023-02-24T01:58:05.063Z,18.43
2023-02-24T02:03:12.516Z,16.93
2023-02-24T02:08:18.748Z,17.07
2023-02-24T02:13:21.680Z,15.93
2023-02-24T02:18:31.587Z,16.17
2023-02-24T02:24:04.502Z,15.30
2023-02-24T02:29:28.673Z,16.27
2023-02-24T02:34:42.130Z,12.43
2023-02-24T02:39:52.848Z,18.10
2023-02-24T02:45:05.416Z,13.27
2023-02-24T02:50:18.808Z,16.40
2023-02-24T02:55:26.143Z,22.73
2023-02-24T03:00:35.425Z,15.43
2023-02-24T03:05:47.334Z,16.90
2023-02-24T03:10:51.941Z,13.33
2023-02-24T03:15:55.236Z,17.07
2023-02-24T03:21:07.281Z,17.17
2023-02-24T03:26:19.058Z,22.60
2023-02-24T03:31:27.959Z,19.43
2023-02-24T03:36:31.544Z,13.80
2023-02-24T03:41:41.593Z,14.27
2023-02-24T03:46:44.484Z,14.07
2023-02-24T03:52:02.780Z,15.17
2023-02-24T03:57:19.142Z,15.53
2023-02-24T04:02:25.444Z,15.73
2023-02-24T04:07:41.636Z,17.73
2023-02-24T04:12:51.151Z,19.77
2023-02-24T04:17:57.698Z,14.00
2023-02-24T04:23:08.829Z,10.37
2023-02-24T04:28:11.872Z,13.40
2023-02-24T04:33:14.429Z,11.87
2023-02-24T04:38:18.249Z,13.03
2023-02-24T04:43:20.790Z,12.97
2023-02-24T04:48:22.991Z,13.70
2023-02-24T04:53:27.613Z,9.50
2023-02-24T04:58:29.918Z,14.63
2023-02-24T05:03:32.393Z,14.67
2023-02-24T05:08:36.506Z,20.87
2023-02-24T05:13:40.418Z,15.27
2023-02-24T05:18:45.032Z,13.13
2023-02-24T05:23:51.955Z,15.33
2023-02-24T05:28:56.744Z,19.23
2023-02-24T05:34:01.752Z,16.57
2023-02-24T05:39:07.771Z,13.70
2023-02-24T05:44:13.850Z,15.33
2023-02-24T05:49:17.752Z,24.53
2023-02-24T05:54:22.885Z,14.23
2023-02-24T05:59:25.527Z,15.03
2023-02-24T06:04:39.707Z,15.00
2023-02-24T06:09:46.413Z,15.97
2023-02-24T06:14:48.721Z,15.00
2023-02-24T06:19:53.261Z,13.23
2023-02-24T06:24:57.739Z,11.87
2023-02-24T06:30:01.053Z,15.10
2023-02-24T06:35:03.476Z,20.07
2023-02-24T06:40:16.054Z,17.27
2023-02-24T06:45:18.503Z,19.30
2023-02-24T06:50:22.196Z,15.73
2023-02-24T06:55:28.859Z,21.93
2023-02-24T07:00:39.394Z,12.80
2023-02-24T07:05:50.436Z,17.87
2023-02-24T07:11:00.046Z,20.03
2023-02-24T07:16:07.466Z,18.73
2023-02-24T07:21:11.920Z,18.07
2023-02-24T07:26:17.201Z,18.83
2023-02-24T07:31:23.252Z,17.83
2023-02-24T07:36:30.454Z,20.40
2023-02-24T07:41:34.392Z,19.50
2023-02-24T07:46:37.380Z,21.67
2023-02-24T07:51:39.874Z,23.27
2023-02-24T07:56:48.975Z,27.50
2023-02-24T08:01:51.296Z,25.30
2023-02-24T08:06:57.724Z,22.80
2023-02-24T08:12:01.381Z,23.63
2023-02-24T08:17:05.690Z,20.67
2023-02-24T08:22:20.499Z,19.03
2023-02-24T08:27:30.637Z,22.00
2023-02-24T08:32:37.558Z,22.30
2023-02-24T08:37:47.302Z,21.83
2023-02-24T08:42:52.464Z,19.50
2023-02-24T08:48:00.757Z,18.57
2023-02-24T08:53:03.345Z,29.03
2023-02-24T08:58:11.319Z,25.27
2023-02-24T09:03:16.564Z,26.33
2023-02-24T09:08:24.253Z,24.07
2023-02-24T09:13:33.207Z,24.13
2023-02-24T09:18:39.687Z,22.80
2023-02-24T09:23:46.207Z,18.40
2023-02-24T09:28:54.901Z,22.17
2023-02-24T09:34:01.831Z,26.73
2023-02-24T09:39:14.919Z,23.10
2023-02-24T09:44:19.430Z,22.40
2023-02-24T09:49:25.425Z,27.17
2023-02-24T09:54:32.089Z,33.07
2023-02-24T09:59:51.253Z,23.30
2023-02-24T10:05:07.742Z,22.97
2023-02-24T10:10:23.510Z,17.50
2023-02-24T10:15:59.528Z,23.27
2023-02-24T10:21:18.256Z,18.90
2023-02-24T10:26:31.915Z,15.87
2023-02-24T10:31:46.415Z,24.37
2023-02-24T10:36:50.641Z,23.17
2023-02-24T10:41:57.821Z,16.03
2023-02-24T10:47:12.591Z,11.35
2023-02-24T10:52:36.866Z,13.18
2023-02-24T10:57:58.614Z,15.18
2023-02-24T11:03:10.750Z,13.60
2023-02-24T11:08:36.750Z,14.43
2023-02-24T11:13:56.358Z,13.93
2023-02-24T11:19:00.393Z,12.57
2023-02-24T11:24:03.667Z,11.43
2023-02-24T11:29:26.718Z,13.48
2023-02-24T11:34:36.538Z,13.95
2023-02-24T11:39:50.896Z,10.93
2023-02-24T11:44:58.387Z,14.27
2023-02-24T11:50:15.351Z,13.52
2023-02-24T11:55:27.980Z,19.85
2023-02-24T12:00:34.779Z,22.27
2023-02-24T12:05:42.396Z,16.93
2023-02-24T12:10:50.678Z,21.47
2023-02-24T12:15:58.162Z,18.23
2023-02-24T12:21:07.324Z,22.00
2023-02-24T12:26:20.523Z,15.45
2023-02-24T12:31:33.405Z,18.33
2023-02-24T12:36:52.593Z,13.80
2023-02-24T12:42:07.646Z,16.53
2023-02-24T12:47:14.121Z,15.13
2023-02-24T12:52:26.877Z,14.47
2023-02-24T12:57:33.636Z,16.57
2023-02-24T13:02:48.920Z,17.17
2023-02-24T13:08:12.552Z,17.73
2023-02-24T13:13:24.953Z,18.10
2023-02-24T13:18:29.034Z,21.13
2023-02-24T13:23:33.179Z,17.90
2023-02-24T13:28:38.680Z,17.80
2023-02-24T13:33:43.205Z,19.50
2023-02-24T13:38:48.697Z,20.00
2023-02-24T13:43:58.223Z,21.40
2023-02-24T13:49:24.340Z,18.07
2023-02-24T13:55:02.071Z,17.83
2023-02-24T14:00:11.693Z,19.50
2023-02-24T14:05:25.172Z,18.53
2023-02-24T14:10:31.812Z,20.63
2023-02-24T14:15:34.900Z,21.47
2023-02-24T14:20:39.916Z,21.07
2023-02-24T14:25:43.997Z,14.47
2023-02-24T14:30:53.463Z,15.37
2023-02-24T14:35:55.730Z,18.67
2023-02-24T14:41:08.984Z,18.77
2023-02-24T14:46:10.916Z,18.80
2023-02-24T14:51:17.864Z,14.73
2023-02-24T14:56:25.274Z,20.43
2023-02-24T15:01:35.194Z,20.23
2023-02-24T15:06:42.390Z,22.83
2023-02-24T15:11:46.718Z,23.23
2023-02-24T15:16:51.119Z,22.17
2023-02-24T15:21:53.205Z,18.23
2023-02-24T15:26:59.274Z,19.73
2023-02-24T15:32:07.705Z,24.93
2023-02-24T15:37:17.480Z,21.77
2023-02-24T15:42:28.757Z,20.60
2023-02-24T15:47:34.758Z,29.47
2023-02-24T15:52:38.343Z,29.80
2023-02-24T15:57:42.386Z,22.77
2023-02-24T16:02:45.245Z,29.50
2023-02-24T16:07:49.491Z,25.83
2023-02-24T16:12:55.912Z,23.90
2023-02-24T16:18:00.256Z,32.20
2023-02-24T16:23:06.016Z,28.20
2023-02-24T16:28:14.850Z,26.07
2023-02-24T16:33:19.231Z,26.13
2023-02-24T16:38:27.100Z,33.27
2023-02-24T16:43:33.864Z,31.33
2023-02-24T16:48:40.306Z,23.47
2023-02-24T16:53:43.142Z,25.17
2023-02-24T16:58:47.196Z,27.23
2023-02-24T17:03:52.525Z,28.43
2023-02-24T17:08:54.841Z,35.80
2023-02-24T17:13:59.897Z,36.10
2023-02-24T17:19:02.536Z,27.37
2023-02-24T17:24:05.088Z,29.43
2023-02-24T17:29:09.504Z,33.23
2023-02-24T17:34:12.986Z,31.97
2023-02-24T17:39:15.946Z,33.23
2023-02-24T17:44:20.115Z,42.47
2023-02-24T17:49:22.939Z,35.10
2023-02-24T17:54:26.118Z,33.93
2023-02-24T17:59:31.536Z,33.83
2023-02-24T18:04:36.110Z,30.07
2023-02-24T18:09:39.662Z,14.67
2023-02-24T18:14:48.355Z,20.83
2023-02-24T18:19:55.977Z,15.60
2023-02-24T18:24:59.981Z,17.37
2023-02-24T18:30:05.178Z,20.80
2023-02-24T18:35:08.791Z,17.00
2023-02-24T18:40:16.570Z,17.67
2023-02-24T18:45:22.193Z,12.93
2023-02-24T18:50:26.226Z,11.57
2023-02-24T18:55:30.547Z,14.70
2023-02-24T19:00:39.782Z,10.93
2023-02-24T19:05:43.226Z,8.93
2023-02-24T19:10:47.447Z,10.87
2023-02-24T19:15:52.210Z,13.37
2023-02-24T19:20:55.967Z,13.07
2023-02-24T19:26:00.567Z,16.03
2023-02-24T19:31:05.212Z,15.70
2023-02-24T19:36:10.230Z,17.87
2023-02-24T19:41:15.606Z,24.57
2023-02-24T19:46:22.427Z,21.83
2023-02-24T19:51:28.162Z,16.13
2023-02-24T19:56:35.994Z,18.50
2023-02-24T20:01:43.853Z,17.37
2023-02-24T20:06:48.787Z,19.37
2023-02-24T20:11:54.992Z,18.53
2023-02-24T20:17:00.587Z,14.83
2023-02-24T20:22:05.170Z,16.00
2023-02-24T20:27:14.097Z,14.20
2023-02-24T20:32:20.648Z,14.37
2023-02-24T20:37:24.526Z,15.73
2023-02-24T20:42:28.840Z,16.40
2023-02-24T20:47:33.840Z,9.53
2023-02-24T20:52:38.307Z,9.53
2023-02-24T20:57:42.336Z,7.87
2023-02-24T21:02:47.599Z,9.37
2023-02-24T21:07:51.822Z,12.50
2023-02-24T21:12:55.095Z,10.83
2023-02-24T21:17:59.411Z,12.27
2023-02-24T21:23:02.021Z,13.70
2023-02-24T21:28:05.012Z,9.67
2023-02-24T21:33:09.582Z,6.53
2023-02-24T21:38:12.647Z,7.77
2023-02-24T21:43:15.082Z,8.07
2023-02-24T21:48:19.545Z,6.73
2023-02-24T21:53:23.944Z,5.33
2023-02-24T21:58:26.756Z,4.17
2023-02-24T22:03:31.319Z,3.43
2023-02-24T22:08:33.805Z,3.73
2023-02-24T22:13:36.416Z,4.23
2023-02-24T22:18:40.395Z,4.10
2023-02-24T22:23:42.944Z,5.80
2023-02-24T22:28:48.022Z,2.97
2023-02-24T22:33:52.148Z,2.10
2023-02-24T22:38:55.595Z,2.97
2023-02-24T22:43:58.017Z,3.17
2023-02-24T22:49:02.656Z,8.47
2023-02-24T22:54:05.836Z,6.37
2023-02-24T22:59:08.219Z,4.57
2023-02-24T23:04:16.095Z,6.20
2023-02-24T23:09:20.951Z,7.53
2023-02-24T23:14:22.949Z,5.10
2023-02-24T23:19:26.422Z,9.90
2023-02-24T23:24:28.524Z,7.17
2023-02-24T23:29:31.809Z,6.27
2023-02-24T23:34:35.296Z,3.63
2023-02-24T23:39:37.292Z,7.47
2023-02-24T23:44:39.852Z,6.80
2023-02-24T23:49:48.556Z,8.13
2023-02-24T23:54:52.789Z,8.33
2023-02-24T23:59:55.189Z,12.03
